Time;durP1;ratioP1;P1;durP2;ratioP2;P2;SDS_P1;SDS_P2;PMS_P1;PMS_P2;Temp;Humidity;BMP_temperature;BMP_pressure;BME280_temperature;BME280_humidity;BME280_pressure;Samples;Min_cycle;Max_cycle;Signal;HPM_P1;HPM_P2
2023/06/17 00:00:07;;;;;;;10.05;6.22;;;18.00;99.90;;;;;;5092043;28;20208;-60
2023/06/17 00:02:35;;;;;;;12.20;6.40;;;17.90;99.90;;;;;;5078044;28;20199;-59
2023/06/17 00:05:03;;;;;;;6.00;5.47;;;17.90;99.90;;;;;;5094728;28;20196;-59
2023/06/17 00:07:31;;;;;;;9.02;5.75;;;17.90;99.90;;;;;;5091579;28;20789;-60
2023/06/17 00:10:00;;;;;;;10.77;6.72;;;17.90;99.90;;;;;;5077540;28;20229;-59
2023/06/17 00:12:31;;;;;;;7.07;5.75;;;17.80;99.90;;;;;;5090883;28;20766;-59
2023/06/17 00:15:01;;;;;;;7.60;5.95;;;17.80;99.90;;;;;;5080049;28;20568;-59
2023/06/17 00:17:30;;;;;;;10.55;5.85;;;17.80;99.90;;;;;;5083947;28;20659;-59
2023/06/17 00:19:58;;;;;;;7.07;5.57;;;17.70;99.90;;;;;;5088660;28;20685;-58
2023/06/17 00:22:29;;;;;;;9.48;5.82;;;17.70;99.90;;;;;;5077682;28;20197;-59
2023/06/17 00:24:57;;;;;;;6.40;5.80;;;17.70;99.90;;;;;;5089341;28;20197;-59
2023/06/17 00:27:26;;;;;;;9.07;5.63;;;17.60;99.90;;;;;;5086534;28;20277;-59
2023/06/17 00:29:58;;;;;;;7.43;5.68;;;17.50;99.90;;;;;;5088468;28;20204;-59
2023/06/17 00:32:26;;;;;;;10.13;5.82;;;17.50;99.90;;;;;;5086120;28;20229;-59
2023/06/17 00:34:54;;;;;;;12.23;5.68;;;17.40;99.90;;;;;;5079793;28;20203;-58
2023/06/17 00:37:22;;;;;;;8.63;5.90;;;17.40;99.90;;;;;;5083359;28;20261;-58
2023/06/17 00:39:50;;;;;;;10.48;5.93;;;17.40;99.90;;;;;;5093722;28;20204;-58
2023/06/17 00:42:18;;;;;;;7.38;5.68;;;17.30;99.90;;;;;;5079912;28;20600;-58
2023/06/17 00:44:47;;;;;;;6.45;5.82;;;17.30;99.90;;;;;;5080899;28;20223;-59
2023/06/17 00:47:15;;;;;;;6.50;5.78;;;17.30;99.90;;;;;;5082282;28;20220;-59
2023/06/17 00:49:44;;;;;;;7.75;5.70;;;17.30;99.90;;;;;;5093773;28;20238;-59
2023/06/17 00:52:12;;;;;;;9.55;6.10;;;17.20;99.90;;;;;;5077204;28;20315;-58
2023/06/17 00:54:43;;;;;;;8.48;5.97;;;17.20;99.90;;;;;;5077044;28;20729;-59
2023/06/17 00:57:13;;;;;;;6.40;5.80;;;17.20;99.90;;;;;;5086264;28;20277;-58
2023/06/17 00:59:42;;;;;;;7.85;6.07;;;17.20;99.90;;;;;;5086511;28;20200;-59
2023/06/17 01:02:13;;;;;;;7.50;5.43;;;17.10;99.90;;;;;;5077264;28;20231;-59
2023/06/17 01:04:42;;;;;;;11.80;6.07;;;17.10;99.90;;;;;;5076617;28;20231;-59
2023/06/17 01:07:24;;;;;;;7.43;6.22;;;17.10;99.90;;;;;;5081795;28;20312;-59
2023/06/17 01:09:56;;;;;;;7.00;6.22;;;17.10;99.90;;;;;;5078676;28;20201;-59
2023/06/17 01:12:26;;;;;;;7.35;5.93;;;17.10;99.90;;;;;;5091307;28;20766;-59
2023/06/17 01:14:55;;;;;;;6.43;5.57;;;17.00;99.90;;;;;;5087191;28;20283;-59
2023/06/17 01:17:24;;;;;;;8.38;6.28;;;17.00;99.90;;;;;;5074899;28;20258;-59
2023/06/17 01:19:53;;;;;;;6.68;5.95;;;16.90;99.90;;;;;;5089296;28;20210;-59
2023/06/17 01:22:21;;;;;;;11.18;5.85;;;16.90;99.90;;;;;;5081811;28;20223;-59
2023/06/17 01:24:51;;;;;;;7.53;5.75;;;16.90;99.90;;;;;;5080109;28;20208;-59
2023/06/17 01:27:18;;;;;;;10.35;6.07;;;16.80;99.90;;;;;;5092923;28;20227;-59
2023/06/17 01:29:48;;;;;;;8.13;6.40;;;16.80;99.90;;;;;;5079789;28;20211;-59
2023/06/17 01:32:17;;;;;;;7.35;6.20;;;16.80;99.90;;;;;;5089172;28;20304;-59
2023/06/17 01:34:49;;;;;;;6.93;6.32;;;16.80;99.90;;;;;;5075957;28;20199;-58
2023/06/17 01:37:20;;;;;;;6.28;5.78;;;16.80;99.90;;;;;;5089846;28;20307;-59
2023/06/17 01:39:48;;;;;;;8.50;6.38;;;16.80;99.90;;;;;;5087174;28;20208;-59
2023/06/17 01:42:20;;;;;;;8.15;6.18;;;16.80;99.90;;;;;;5075867;28;20284;-58
2023/06/17 01:44:48;;;;;;;8.98;6.75;;;16.80;99.90;;;;;;5092516;28;20315;-59
2023/06/17 01:47:16;;;;;;;10.80;6.30;;;16.80;99.90;;;;;;5083008;28;20715;-57
2023/06/17 01:49:44;;;;;;;6.95;6.20;;;16.70;99.90;;;;;;5084832;28;20211;-59
2023/06/17 01:52:11;;;;;;;8.98;6.80;;;16.70;99.90;;;;;;5081018;28;20269;-59
2023/06/17 01:54:39;;;;;;;9.63;6.32;;;16.70;99.90;;;;;;5086496;28;20637;-58
2023/06/17 01:57:08;;;;;;;7.97;6.00;;;16.60;99.90;;;;;;5092135;28;20204;-59
2023/06/17 01:59:37;;;;;;;7.68;6.43;;;16.60;99.90;;;;;;5082889;28;20219;-59
2023/06/17 02:02:05;;;;;;;6.80;6.10;;;16.60;99.90;;;;;;5084943;28;20296;-59
2023/06/17 02:04:33;;;;;;;6.15;5.65;;;16.60;99.90;;;;;;5080201;28;20192;-59
2023/06/17 02:07:01;;;;;;;7.57;6.03;;;16.50;99.90;;;;;;5079918;28;20212;-59
2023/06/17 02:09:29;;;;;;;7.82;6.07;;;16.50;99.90;;;;;;5077402;28;20232;-59
2023/06/17 02:11:57;;;;;;;7.03;5.97;;;16.50;99.90;;;;;;5086187;28;20290;-59
2023/06/17 02:14:24;;;;;;;7.43;6.63;;;16.50;99.90;;;;;;5090198;28;20267;-59
2023/06/17 02:16:54;;;;;;;8.02;6.97;;;16.40;99.90;;;;;;5077022;28;20289;-59
2023/06/17 02:19:22;;;;;;;6.95;6.07;;;16.40;99.90;;;;;;5086080;28;20673;-59
2023/06/17 02:21:50;;;;;;;9.38;6.15;;;16.30;99.90;;;;;;5078523;28;20722;-58
2023/06/17 02:24:18;;;;;;;11.98;6.75;;;16.30;99.90;;;;;;5088694;28;20646;-59
2023/06/17 02:26:47;;;;;;;7.22;6.22;;;16.30;99.90;;;;;;5079305;28;20290;-59
2023/06/17 02:29:15;;;;;;;8.00;6.07;;;16.20;99.90;;;;;;5083301;28;20204;-58
2023/06/17 02:31:43;;;;;;;8.63;7.15;;;16.20;99.90;;;;;;5084066;28;20239;-57
2023/06/17 02:34:13;;;;;;;13.05;6.40;;;16.10;99.90;;;;;;5075128;28;20584;-59
2023/06/17 02:36:41;;;;;;;9.93;6.60;;;16.10;99.90;;;;;;5074894;28;20200;-59
2023/06/17 02:39:10;;;;;;;7.68;6.50;;;16.10;99.90;;;;;;5084059;28;20674;-59
2023/06/17 02:41:38;;;;;;;8.43;6.47;;;16.00;99.90;;;;;;5083291;28;20299;-58
2023/06/17 02:44:05;;;;;;;11.45;6.20;;;16.00;99.90;;;;;;5076069;28;20201;-58
2023/06/17 02:46:34;;;;;;;7.38;6.68;;;16.00;99.90;;;;;;5087707;28;20211;-59
2023/06/17 02:49:01;;;;;;;7.10;6.40;;;16.00;99.90;;;;;;5080650;28;20594;-59
2023/06/17 02:51:32;;;;;;;9.18;5.93;;;16.00;99.90;;;;;;5080811;28;20205;-59
2023/06/17 02:53:59;;;;;;;9.00;6.28;;;15.90;99.90;;;;;;5086030;28;20311;-58
2023/06/17 02:56:27;;;;;;;7.07;5.95;;;15.90;99.90;;;;;;5089266;28;20790;-58
2023/06/17 02:58:55;;;;;;;7.70;6.25;;;15.80;99.90;;;;;;5077111;28;20226;-59
2023/06/17 03:01:23;;;;;;;12.80;6.50;;;15.80;99.90;;;;;;5081523;28;20598;-58
2023/06/17 03:03:54;;;;;;;7.40;6.28;;;15.80;99.90;;;;;;5082645;28;20655;-59
2023/06/17 03:06:23;;;;;;;8.93;6.07;;;15.70;99.90;;;;;;5087813;28;20294;-59
2023/06/17 03:08:52;;;;;;;6.70;6.10;;;15.70;99.90;;;;;;5076251;28;20251;-59
2023/06/17 03:11:20;;;;;;;7.43;6.68;;;15.60;99.90;;;;;;5091176;28;20864;-59
2023/06/17 03:13:48;;;;;;;10.85;7.00;;;15.60;99.90;;;;;;5078152;28;20217;-58
2023/06/17 03:16:16;;;;;;;7.22;6.55;;;15.50;99.90;;;;;;5086496;28;20288;-59
2023/06/17 03:18:45;;;;;;;6.93;6.30;;;15.40;99.90;;;;;;5083577;28;20216;-59
2023/06/17 03:21:13;;;;;;;7.95;6.50;;;15.50;99.90;;;;;;5083054;28;20284;-57
2023/06/17 03:23:42;;;;;;;7.40;6.18;;;15.40;99.90;;;;;;5083091;28;20202;-59
2023/06/17 03:26:11;;;;;;;8.82;5.75;;;15.40;99.90;;;;;;5079049;28;20640;-59
2023/06/17 03:28:39;;;;;;;10.00;6.95;;;15.40;99.90;;;;;;5074373;28;20667;-59
2023/06/17 03:31:07;;;;;;;7.60;6.53;;;15.30;99.90;;;;;;5083506;28;20236;-59
2023/06/17 03:33:34;;;;;;;8.77;6.80;;;15.30;99.90;;;;;;5082187;28;20262;-59
2023/06/17 03:36:02;;;;;;;7.75;6.90;;;15.30;99.90;;;;;;5075790;28;20284;-58
2023/06/17 03:38:30;;;;;;;7.68;6.45;;;15.30;99.90;;;;;;5087397;28;20769;-59
2023/06/17 03:40:58;;;;;;;7.15;6.20;;;15.20;99.90;;;;;;5076957;28;20284;-59
2023/06/17 03:43:27;;;;;;;10.48;6.43;;;15.30;99.90;;;;;;5080734;28;20300;-58
2023/06/17 03:45:55;;;;;;;9.68;6.97;;;15.20;99.90;;;;;;5084757;28;20288;-59
2023/06/17 03:48:23;;;;;;;8.05;6.30;;;15.30;99.90;;;;;;5074219;28;20296;-58
2023/06/17 03:50:51;;;;;;;9.50;6.40;;;15.30;99.90;;;;;;5085791;28;20236;-59
2023/06/17 03:53:19;;;;;;;8.60;6.82;;;15.30;99.90;;;;;;5085716;28;20291;-58
2023/06/17 03:55:46;;;;;;;12.45;6.80;;;15.20;99.90;;;;;;5077525;28;20288;-59
2023/06/17 03:58:14;;;;;;;7.57;6.72;;;15.30;99.90;;;;;;5088108;28;20230;-59
2023/06/17 04:00:44;;;;;;;8.82;6.95;;;15.30;99.90;;;;;;5078300;28;20205;-58
2023/06/17 04:03:12;;;;;;;7.57;5.95;;;15.30;99.90;;;;;;5086440;28;20280;-58
2023/06/17 04:05:41;;;;;;;6.93;6.28;;;15.30;99.90;;;;;;5085940;28;20208;-59
2023/06/17 04:08:09;;;;;;;8.10;6.68;;;15.40;99.90;;;;;;5078007;28;20989;-58
2023/06/17 04:10:37;;;;;;;10.98;7.25;;;15.40;99.90;;;;;;5090644;28;20203;-58
2023/06/17 04:13:05;;;;;;;10.20;6.80;;;15.40;99.90;;;;;;5081547;28;20269;-58
2023/06/17 04:15:33;;;;;;;8.63;6.60;;;15.40;99.90;;;;;;5082985;28;20308;-59
2023/06/17 04:18:03;;;;;;;7.15;6.45;;;15.40;99.90;;;;;;5088802;28;20691;-57
2023/06/17 04:20:34;;;;;;;7.00;6.32;;;15.50;99.90;;;;;;5077369;28;20208;-59
2023/06/17 04:23:02;;;;;;;6.93;6.25;;;15.50;99.90;;;;;;5087243;28;20684;-59
2023/06/17 04:25:32;;;;;;;11.57;6.10;;;15.50;99.90;;;;;;5077774;28;20577;-59
2023/06/17 04:28:01;;;;;;;7.75;6.40;;;15.60;99.90;;;;;;5088561;28;20308;-59
2023/06/17 04:30:30;;;;;;;9.98;6.40;;;15.60;99.90;;;;;;5076875;28;20232;-59
2023/06/17 04:33:00;;;;;;;10.90;6.18;;;15.60;99.90;;;;;;5089737;28;20258;-58
2023/06/17 04:35:29;;;;;;;8.15;6.65;;;15.70;99.90;;;;;;5087638;28;20224;-59
2023/06/17 04:37:57;;;;;;;8.60;6.30;;;15.70;99.90;;;;;;5087720;28;20255;-59
2023/06/17 04:40:27;;;;;;;8.13;6.15;;;15.70;99.90;;;;;;5090313;28;20196;-59
2023/06/17 04:42:55;;;;;;;10.68;7.20;;;15.80;99.90;;;;;;5079340;28;20228;-59
2023/06/17 04:45:24;;;;;;;7.15;6.13;;;15.90;99.90;;;;;;5093071;28;20202;-59
2023/06/17 04:47:52;;;;;;;7.55;6.72;;;15.90;99.90;;;;;;5082187;28;20311;-59
2023/06/17 04:50:20;;;;;;;7.75;6.97;;;16.00;99.90;;;;;;5080215;28;20201;-58
2023/06/17 04:52:51;;;;;;;11.15;7.78;;;16.10;99.90;;;;;;5077183;28;20196;-59
2023/06/17 04:55:21;;;;;;;8.73;6.88;;;16.20;99.90;;;;;;5092124;28;20224;-59
2023/06/17 04:57:49;;;;;;;8.23;7.43;;;16.20;99.90;;;;;;5080200;28;20225;-59
2023/06/17 05:00:17;;;;;;;8.82;6.82;;;16.30;99.90;;;;;;5089706;28;20249;-56
2023/06/17 05:02:49;;;;;;;5.38;4.78;;;16.30;99.90;;;;;;5078291;28;20232;-54
2023/06/17 05:05:17;;;;;;;6.18;5.43;;;16.60;99.90;;;;;;5084058;28;20235;-54
2023/06/17 05:07:44;;;;;;;6.90;5.90;;;17.10;99.90;;;;;;5085757;28;20688;-54
2023/06/17 05:10:14;;;;;;;8.57;6.18;;;17.60;99.90;;;;;;5075355;28;20243;-55
2023/06/17 05:12:42;;;;;;;7.05;6.35;;;18.00;99.90;;;;;;5076868;28;20196;-55
2023/06/17 05:15:10;;;;;;;8.43;6.40;;;18.20;99.90;;;;;;5085198;28;20574;-55
2023/06/17 05:17:38;;;;;;;6.82;6.22;;;18.40;99.90;;;;;;5084631;28;20302;-57
2023/06/17 05:20:07;;;;;;;6.50;6.03;;;18.50;99.90;;;;;;5077460;28;20262;-57
2023/06/17 05:22:35;;;;;;;10.68;6.60;;;18.60;99.90;;;;;;5089515;28;20240;-54
2023/06/17 05:25:03;;;;;;;7.40;6.45;;;18.60;99.90;;;;;;5076012;28;20664;-55
2023/06/17 05:27:32;;;;;;;8.52;6.72;;;18.60;99.90;;;;;;5083246;28;20255;-56
2023/06/17 05:30:00;;;;;;;7.88;6.95;;;18.70;99.90;;;;;;5078081;28;20618;-55
2023/06/17 05:32:28;;;;;;;7.90;7.30;;;18.80;99.90;;;;;;5089319;28;20215;-56
2023/06/17 05:34:56;;;;;;;9.82;7.45;;;18.90;99.90;;;;;;5078034;28;20311;-54
2023/06/17 05:37:24;;;;;;;7.60;6.95;;;19.00;99.90;;;;;;5082432;28;20224;-54
2023/06/17 05:39:52;;;;;;;7.60;6.90;;;19.10;99.90;;;;;;5085988;28;20575;-55
2023/06/17 05:42:20;;;;;;;8.85;7.38;;;19.20;99.90;;;;;;5075600;28;20274;-54
2023/06/17 05:44:49;;;;;;;9.90;7.32;;;19.20;99.90;;;;;;5087429;28;20617;-55
2023/06/17 05:47:17;;;;;;;8.75;7.20;;;19.20;99.90;;;;;;5080877;28;20302;-57
2023/06/17 05:49:45;;;;;;;8.73;7.50;;;19.30;99.90;;;;;;5088389;28;20286;-56
2023/06/17 05:52:13;;;;;;;7.43;6.82;;;19.30;99.90;;;;;;5092207;28;20609;-54
2023/06/17 05:54:41;;;;;;;9.70;7.30;;;19.40;99.90;;;;;;5075534;28;20223;-55
2023/06/17 05:57:08;;;;;;;8.20;7.40;;;19.40;99.90;;;;;;5084692;28;20207;-56
2023/06/17 05:59:36;;;;;;;9.60;6.93;;;19.40;99.90;;;;;;5083330;28;20705;-55
2023/06/17 06:02:06;;;;;;;8.45;7.13;;;19.50;99.90;;;;;;5076680;28;20287;-54
2023/06/17 06:04:34;;;;;;;10.05;7.80;;;19.50;99.90;;;;;;5088612;28;20205;-56
2023/06/17 06:07:02;;;;;;;7.47;6.78;;;19.60;99.90;;;;;;5078084;28;20292;-55
2023/06/17 06:09:29;;;;;;;9.70;6.88;;;19.60;99.90;;;;;;5097671;22;20330;-60
2023/06/17 06:11:57;;;;;;;10.95;7.28;;;19.60;99.90;;;;;;5086672;28;20206;-60
2023/06/17 06:14:25;;;;;;;11.63;7.63;;;19.70;99.90;;;;;;5075432;28;20289;-61
2023/06/17 06:16:53;;;;;;;8.55;7.70;;;19.80;99.90;;;;;;5086186;28;20726;-61
2023/06/17 06:19:22;;;;;;;7.80;6.72;;;19.60;99.90;;;;;;5081046;28;20607;-60
2023/06/17 06:21:50;;;;;;;8.93;7.05;;;19.40;99.90;;;;;;5078071;28;20238;-60
2023/06/17 06:24:18;;;;;;;9.10;7.55;;;19.30;99.90;;;;;;5088355;28;20291;-60
2023/06/17 06:26:46;;;;;;;7.93;6.28;;;19.30;99.90;;;;;;5071419;28;20196;-60
2023/06/17 06:29:14;;;;;;;11.00;8.05;;;19.20;99.90;;;;;;5079963;28;20656;-60
2023/06/17 06:31:43;;;;;;;8.50;6.60;;;19.30;99.90;;;;;;5079419;28;20240;-61
2023/06/17 06:34:11;;;;;;;8.43;7.13;;;19.40;99.90;;;;;;5087678;28;20208;-60
2023/06/17 06:36:41;;;;;;;8.25;7.25;;;19.60;99.90;;;;;;5058475;28;20289;-60
2023/06/17 06:39:09;;;;;;;7.50;6.78;;;19.80;99.90;;;;;;5084194;28;20228;-61
2023/06/17 06:41:41;;;;;;;9.20;6.82;;;19.80;99.90;;;;;;5083894;28;20253;-60
2023/06/17 06:44:08;;;;;;;8.02;6.93;;;19.80;99.90;;;;;;5075672;28;20287;-62
2023/06/17 06:46:36;;;;;;;9.43;7.43;;;19.70;99.90;;;;;;5087955;28;20271;-60
2023/06/17 06:49:04;;;;;;;8.82;6.45;;;19.70;99.90;;;;;;5078690;28;20252;-60
2023/06/17 06:51:33;;;;;;;7.75;6.35;;;19.70;99.90;;;;;;5080700;28;20970;-61
2023/06/17 06:54:02;;;;;;;8.10;6.63;;;19.80;99.90;;;;;;5086605;28;20204;-60
2023/06/17 06:56:30;;;;;;;8.70;6.57;;;19.90;99.90;;;;;;5074553;28;20588;-60
2023/06/17 06:58:58;;;;;;;8.07;7.22;;;20.00;99.90;;;;;;5085506;28;20300;-60
2023/06/17 07:01:27;;;;;;;7.97;7.28;;;20.00;99.90;;;;;;5071294;28;20205;-61
2023/06/17 07:03:55;;;;;;;7.65;6.97;;;20.10;99.90;;;;;;5085454;28;20204;-61
2023/06/17 07:06:23;;;;;;;7.80;7.07;;;20.10;99.90;;;;;;5074262;28;20357;-61
2023/06/17 07:08:50;;;;;;;7.70;6.85;;;20.20;99.90;;;;;;5086217;28;20644;-61
2023/06/17 07:11:20;;;;;;;7.55;6.78;;;20.20;99.90;;;;;;5071158;28;20283;-61
2023/06/17 07:13:47;;;;;;;8.90;7.80;;;20.20;99.90;;;;;;5083885;28;20670;-60
2023/06/17 07:16:15;;;;;;;8.98;7.22;;;20.30;99.90;;;;;;5074289;28;20307;-60
2023/06/17 07:18:43;;;;;;;8.18;7.25;;;20.30;99.90;;;;;;5087095;28;20224;-61
2023/06/17 07:21:11;;;;;;;8.70;7.35;;;20.30;99.90;;;;;;5079246;28;20250;-61
2023/06/17 07:23:39;;;;;;;6.93;6.25;;;20.30;99.90;;;;;;5079475;28;20292;-63
2023/06/17 07:26:07;;;;;;;7.38;6.68;;;20.40;99.90;;;;;;5073801;28;20635;-62
2023/06/17 07:28:36;;;;;;;7.85;7.15;;;20.50;99.90;;;;;;5086527;28;20300;-61
2023/06/17 07:31:04;;;;;;;7.97;6.80;;;20.60;99.90;;;;;;5077572;28;20783;-60
2023/06/17 07:33:32;;;;;;;10.88;7.50;;;20.60;99.90;;;;;;5081391;28;20413;-60
2023/06/17 07:36:00;;;;;;;11.43;6.78;;;20.60;99.90;;;;;;5073762;28;20311;-64
2023/06/17 07:38:28;;;;;;;10.82;6.57;;;20.70;99.90;;;;;;5074803;28;20556;-64
2023/06/17 07:40:56;;;;;;;8.63;6.47;;;20.70;99.90;;;;;;5074490;28;20228;-64
2023/06/17 07:43:24;;;;;;;7.55;6.85;;;20.80;99.90;;;;;;5084843;28;20200;-64
2023/06/17 07:45:53;;;;;;;6.82;5.97;;;20.90;99.90;;;;;;5081019;28;20276;-64
2023/06/17 07:48:21;;;;;;;6.88;6.28;;;21.00;99.90;;;;;;5091416;28;20253;-64
2023/06/17 07:50:49;;;;;;;6.57;5.95;;;21.20;99.90;;;;;;5079528;28;20667;-65
2023/06/17 07:53:17;;;;;;;8.52;7.38;;;21.30;99.90;;;;;;5085911;28;20228;-64
2023/06/17 07:55:45;;;;;;;9.80;6.05;;;21.40;99.90;;;;;;5087224;28;20211;-64
2023/06/17 07:58:13;;;;;;;9.45;6.75;;;21.50;99.90;;;;;;5077961;28;20582;-64
2023/06/17 08:00:42;;;;;;;7.03;6.32;;;21.60;99.90;;;;;;5062161;28;20227;-65
2023/06/17 08:03:12;;;;;;;12.27;7.40;;;21.70;99.90;;;;;;5086851;28;20233;-64
2023/06/17 08:05:40;;;;;;;8.23;6.53;;;21.90;99.90;;;;;;5085002;28;20749;-64
2023/06/17 08:08:08;;;;;;;8.52;6.70;;;22.00;99.90;;;;;;5078477;28;20258;-64
2023/06/17 08:10:36;;;;;;;8.18;6.97;;;22.10;99.90;;;;;;5091084;28;20224;-65
2023/06/17 08:13:04;;;;;;;8.27;7.40;;;22.20;99.90;;;;;;5081320;28;20249;-65
2023/06/17 08:15:32;;;;;;;8.52;6.68;;;22.30;99.90;;;;;;5083347;28;20232;-65
2023/06/17 08:18:00;;;;;;;11.55;6.95;;;22.40;99.90;;;;;;5088969;28;20251;-65
2023/06/17 08:20:29;;;;;;;7.57;6.82;;;22.50;99.90;;;;;;5077135;28;20239;-65
2023/06/17 08:22:57;;;;;;;7.32;6.30;;;22.70;99.90;;;;;;5088370;28;20228;-65
2023/06/17 08:25:25;;;;;;;6.97;5.72;;;22.80;99.90;;;;;;5078213;28;20724;-65
2023/06/17 08:27:53;;;;;;;8.10;5.88;;;22.90;99.90;;;;;;5088107;28;20195;-66
2023/06/17 08:30:21;;;;;;;11.15;6.43;;;23.00;99.90;;;;;;5077586;28;20671;-65
2023/06/17 08:32:50;;;;;;;6.45;5.82;;;23.20;99.90;;;;;;5089280;28;20197;-66
2023/06/17 08:35:17;;;;;;;9.70;5.90;;;23.30;99.90;;;;;;5082497;28;20212;-65
2023/06/17 08:37:47;;;;;;;6.80;6.00;;;23.40;99.90;;;;;;5081453;28;20340;-65
2023/06/17 08:40:15;;;;;;;7.45;5.20;;;23.60;99.90;;;;;;5090407;28;20245;-66
2023/06/17 08:42:43;;;;;;;8.65;5.32;;;23.70;99.90;;;;;;5077836;28;20242;-65
2023/06/17 08:45:11;;;;;;;8.57;5.72;;;23.90;99.90;;;;;;5085565;28;20255;-65
2023/06/17 08:47:39;;;;;;;7.53;5.78;;;23.90;99.90;;;;;;5085498;28;20257;-65
2023/06/17 08:50:07;;;;;;;7.22;5.25;;;23.90;99.90;;;;;;5078069;28;20236;-65
2023/06/17 08:52:36;;;;;;;5.78;5.03;;;24.00;99.90;;;;;;5090551;28;20201;-65
2023/06/17 08:55:06;;;;;;;10.02;5.20;;;24.10;99.90;;;;;;5080201;28;20200;-65
2023/06/17 08:57:34;;;;;;;6.30;5.28;;;24.20;99.90;;;;;;5082469;28;20220;-65
2023/06/17 09:00:05;;;;;;;7.50;4.72;;;24.30;99.90;;;;;;5088396;28;20596;-65
2023/06/17 09:02:33;;;;;;;5.60;4.53;;;24.40;99.90;;;;;;5077055;28;20200;-64
2023/06/17 09:05:01;;;;;;;4.68;4.25;;;24.50;99.90;;;;;;5086649;28;20664;-65
2023/06/17 09:07:29;;;;;;;5.13;4.72;;;24.70;99.90;;;;;;5083760;28;20196;-65
2023/06/17 09:09:59;;;;;;;5.32;4.57;;;24.70;99.90;;;;;;5078808;28;20263;-65
2023/06/17 09:12:32;;;;;;;5.47;5.13;;;24.90;99.90;;;;;;5089401;28;20235;-64
2023/06/17 09:15:00;;;;;;;5.28;4.85;;;25.00;99.90;;;;;;5079573;28;20231;-65
2023/06/17 09:17:31;;;;;;;7.50;5.40;;;25.10;99.90;;;;;;5083061;28;20377;-65
2023/06/17 09:20:10;;;;;;;6.40;4.47;;;25.30;99.90;;;;;;5087758;28;20731;-65
2023/06/17 09:22:42;;;;;;;8.20;5.57;;;25.30;99.90;;;;;;5076399;28;20698;-66
2023/06/17 09:25:12;;;;;;;6.20;5.65;;;25.50;99.90;;;;;;5084817;28;20232;-65
2023/06/17 09:27:49;;;;;;;7.75;5.50;;;25.70;99.90;;;;;;5072982;28;20200;-65
2023/06/17 09:30:41;;;;;;;7.85;4.95;;;25.90;99.90;;;;;;5089532;28;20208;-65
2023/06/17 09:33:17;;;;;;;5.00;4.60;;;26.00;99.30;;;;;;5080781;28;20208;-65
2023/06/17 09:35:46;;;;;;;7.88;4.60;;;26.10;99.10;;;;;;5079662;28;20729;-65
2023/06/17 09:38:17;;;;;;;5.53;4.25;;;26.20;97.40;;;;;;5089360;28;20252;-65
2023/06/17 09:40:45;;;;;;;4.95;4.55;;;26.40;99.90;;;;;;5076928;28;20711;-65
2023/06/17 09:43:14;;;;;;;9.35;4.88;;;26.60;97.20;;;;;;5084343;28;20688;-65
2023/06/17 09:45:59;;;;;;;11.32;4.90;;;26.80;95.80;;;;;;5086003;28;20594;-65
2023/06/17 09:48:30;;;;;;;8.60;5.05;;;26.90;94.90;;;;;;5076237;28;20200;-65
2023/06/17 09:50:58;;;;;;;6.53;4.70;;;27.10;95.20;;;;;;5086520;28;20224;-66
2023/06/17 09:53:29;;;;;;;8.63;5.05;;;27.10;91.50;;;;;;5083003;28;20211;-65
2023/06/17 09:55:58;;;;;;;8.07;5.30;;;27.30;94.40;;;;;;5077159;28;20201;-65
2023/06/17 09:58:29;;;;;;;7.88;5.00;;;27.40;97.10;;;;;;5088746;28;20265;-65
2023/06/17 10:00:57;;;;;;;7.78;4.75;;;27.70;95.80;;;;;;5078487;28;20196;-66
2023/06/17 10:03:25;;;;;;;6.05;5.05;;;27.80;92.40;;;;;;5082770;28;20212;-66
2023/06/17 10:05:55;;;;;;;4.82;4.43;;;28.00;95.50;;;;;;5085709;28;20200;-66
2023/06/17 10:08:23;;;;;;;5.75;5.18;;;28.30;94.20;;;;;;5075363;28;20622;-66
2023/06/17 10:10:51;;;;;;;5.72;5.05;;;28.50;93.20;;;;;;5087048;28;20228;-65
2023/06/17 10:13:20;;;;;;;7.55;5.00;;;28.60;90.50;;;;;;5081245;28;20240;-65
2023/06/17 10:15:49;;;;;;;5.50;4.78;;;28.70;87.00;;;;;;5078876;28;20287;-65
2023/06/17 10:18:17;;;;;;;4.90;4.50;;;28.80;84.60;;;;;;5088640;28;20323;-65
2023/06/17 10:20:45;;;;;;;5.03;4.63;;;28.80;84.80;;;;;;5076405;28;20200;-65
2023/06/17 10:23:13;;;;;;;5.15;4.80;;;29.00;90.50;;;;;;5083847;28;20730;-66
2023/06/17 10:25:41;;;;;;;8.20;4.65;;;29.20;91.80;;;;;;5075690;28;20208;-66
2023/06/17 10:28:09;;;;;;;5.75;5.18;;;29.50;87.10;;;;;;5088249;28;20196;-66
2023/06/17 10:30:39;;;;;;;5.93;5.03;;;29.70;90.30;;;;;;5075189;28;20723;-66
2023/06/17 10:33:08;;;;;;;5.45;4.95;;;30.00;90.00;;;;;;5084477;28;20200;-66
2023/06/17 10:35:40;;;;;;;10.98;5.03;;;30.10;84.30;;;;;;5083014;28;20208;-66
2023/06/17 10:38:11;;;;;;;5.15;4.38;;;30.30;83.10;;;;;;5075845;28;20304;-65
2023/06/17 10:40:50;;;;;;;6.00;5.47;;;30.40;80.30;;;;;;5058483;28;20643;-65
2023/06/17 10:43:19;;;;;;;7.22;4.85;;;30.30;78.00;;;;;;5082983;28;20257;-65
2023/06/17 10:45:54;;;;;;;9.07;5.22;;;30.20;76.90;;;;;;5084316;28;20211;-66
2023/06/17 10:48:29;;;;;;;5.47;4.65;;;30.20;76.80;;;;;;5074739;28;20227;-66
2023/06/17 10:50:58;;;;;;;6.60;4.95;;;30.40;77.10;;;;;;5085599;28;20649;-67
2023/06/17 10:53:30;;;;;;;6.22;5.00;;;30.50;75.90;;;;;;5081779;28;20387;-66
2023/06/17 10:55:59;;;;;;;5.80;5.30;;;30.50;75.30;;;;;;5076859;28;20234;-66
2023/06/17 10:58:31;;;;;;;5.85;5.35;;;30.60;74.00;;;;;;5087888;28;20610;-64
2023/06/17 11:01:00;;;;;;;6.13;5.00;;;30.80;73.40;;;;;;5077542;28;20320;-66
2023/06/17 11:03:29;;;;;;;16.85;5.25;;;31.20;79.00;;;;;;5081212;28;20236;-66
2023/06/17 11:06:01;;;;;;;5.05;4.70;;;31.50;78.60;;;;;;5085753;28;20200;-66
2023/06/17 11:08:30;;;;;;;5.32;4.82;;;31.70;72.90;;;;;;5075906;28;20291;-65
2023/06/17 11:11:09;;;;;;;5.30;4.63;;;31.90;71.40;;;;;;5089602;28;20224;-65
2023/06/17 11:13:38;;;;;;;5.13;4.72;;;32.20;71.50;;;;;;5087422;28;20195;-65
2023/06/17 11:16:06;;;;;;;5.47;4.47;;;32.30;72.50;;;;;;5079838;28;20208;-65
2023/06/17 11:18:39;;;;;;;5.55;4.40;;;31.90;68.80;;;;;;5092107;28;20270;-65
2023/06/17 11:21:08;;;;;;;6.70;4.90;;;31.50;70.70;;;;;;5082860;28;20232;-65
2023/06/17 11:23:37;;;;;;;5.55;5.05;;;31.20;67.90;;;;;;5083981;28;20284;-65
2023/06/17 11:26:05;;;;;;;5.75;5.10;;;31.40;66.40;;;;;;5079062;28;20305;-65
2023/06/17 11:28:33;;;;;;;5.40;4.95;;;31.70;73.00;;;;;;5092145;28;20323;-65
2023/06/17 11:31:01;;;;;;;6.30;4.75;;;32.00;66.60;;;;;;5081950;28;20196;-65
2023/06/17 11:33:30;;;;;;;11.73;4.97;;;32.30;65.10;;;;;;5084817;28;20200;-65
2023/06/17 11:36:00;;;;;;;4.43;4.13;;;32.40;62.80;;;;;;5089370;28;20239;-65
2023/06/17 11:38:28;;;;;;;6.25;4.40;;;32.70;63.40;;;;;;5078255;28;20307;-65
2023/06/17 11:40:56;;;;;;;6.55;4.55;;;32.90;62.10;;;;;;5088825;28;20612;-65
2023/06/17 11:43:26;;;;;;;5.53;4.97;;;32.60;64.10;;;;;;5084710;28;20236;-65
2023/06/17 11:45:56;;;;;;;6.88;5.03;;;32.60;62.60;;;;;;5080808;28;20258;-65
2023/06/17 11:48:30;;;;;;;5.43;4.93;;;32.40;65.40;;;;;;5091709;28;20279;-65
2023/06/17 11:50:58;;;;;;;7.55;5.40;;;32.20;62.90;;;;;;5081664;28;20288;-65
2023/06/17 11:53:32;;;;;;;5.10;4.45;;;31.60;63.30;;;;;;5085109;28;20669;-66
2023/06/17 11:56:06;;;;;;;6.45;5.03;;;31.20;62.70;;;;;;5089432;28;20204;-65
2023/06/17 11:58:34;;;;;;;6.50;4.45;;;30.80;63.80;;;;;;5078393;28;20333;-65
2023/06/17 12:01:04;;;;;;;6.80;5.20;;;30.30;64.10;;;;;;5088130;28;20683;-65
2023/06/17 12:03:32;;;;;;;5.32;4.53;;;30.60;64.30;;;;;;5085317;28;20207;-65
2023/06/17 12:06:00;;;;;;;5.15;4.70;;;31.10;60.60;;;;;;5079737;28;20218;-65
2023/06/17 12:08:33;;;;;;;4.82;4.50;;;31.30;61.60;;;;;;5091088;28;20200;-65
2023/06/17 12:11:04;;;;;;;4.97;4.55;;;31.70;61.70;;;;;;5089771;22;20646;-61
2023/06/17 12:13:39;;;;;;;7.25;4.75;;;32.20;61.10;;;;;;5074443;28;20224;-61
2023/06/17 12:16:10;;;;;;;6.03;4.78;;;32.70;60.90;;;;;;5073898;28;20246;-62
2023/06/17 12:18:38;;;;;;;6.18;4.00;;;33.10;58.20;;;;;;5073975;28;20631;-62
2023/06/17 12:21:09;;;;;;;6.07;4.88;;;33.40;56.80;;;;;;5073897;28;20733;-62
2023/06/17 12:23:39;;;;;;;6.43;4.93;;;33.80;57.20;;;;;;5074093;28;20205;-62
2023/06/17 12:26:07;;;;;;;4.68;4.22;;;34.20;56.20;;;;;;5073043;28;20224;-62
2023/06/17 12:28:34;;;;;;;5.70;4.35;;;34.50;55.40;;;;;;5073361;28;20246;-62
2023/06/17 12:31:02;;;;;;;4.93;4.47;;;34.80;55.60;;;;;;5074025;28;20295;-62
2023/06/17 12:33:30;;;;;;;4.82;4.10;;;34.50;55.20;;;;;;5073741;28;20231;-62
2023/06/17 12:35:59;;;;;;;5.35;4.82;;;33.90;57.10;;;;;;5065053;28;20301;-62
2023/06/17 12:38:28;;;;;;;5.55;4.53;;;33.20;58.20;;;;;;5063912;28;20308;-62
2023/06/17 12:40:59;;;;;;;7.85;4.50;;;32.60;58.90;;;;;;5059433;28;20259;-62
2023/06/17 12:43:26;;;;;;;9.10;4.82;;;32.80;60.80;;;;;;5064231;28;20585;-62
2023/06/17 12:45:54;;;;;;;6.55;4.28;;;33.40;60.70;;;;;;5073638;28;20205;-62
2023/06/17 12:48:22;;;;;;;9.00;4.88;;;34.10;59.20;;;;;;5073820;28;20208;-62
2023/06/17 12:50:50;;;;;;;8.68;4.90;;;34.40;57.80;;;;;;5073508;28;20718;-62
2023/06/17 12:53:18;;;;;;;5.22;4.80;;;34.10;57.50;;;;;;5073384;28;20288;-62